createdAt,value
2022-09-04T00:00:02.665Z,18.11
2022-09-04T00:02:48.361Z,18.12
2022-09-04T00:05:21.976Z,18.13
2022-09-04T00:07:59.013Z,18.13
2022-09-04T00:10:32.389Z,18.15
2022-09-04T00:13:09.671Z,18.11
2022-09-04T00:15:42.714Z,18.06
2022-09-04T00:18:14.504Z,18.01
2022-09-04T00:20:49.765Z,17.94
2022-09-04T00:23:22.963Z,17.90
2022-09-04T00:25:59.036Z,17.85
2022-09-04T00:28:35.991Z,17.77
2022-09-04T00:31:15.891Z,17.70
2022-09-04T00:33:51.455Z,17.65
2022-09-04T00:36:21.013Z,17.59
2022-09-04T00:38:54.881Z,17.52
2022-09-04T00:41:31.101Z,17.47
2022-09-04T00:44:33.042Z,17.43
2022-09-04T00:47:21.240Z,17.39
2022-09-04T00:50:13.089Z,17.38
2022-09-04T00:53:00.734Z,17.36
2022-09-04T00:55:45.565Z,17.36
2022-09-04T00:58:38.585Z,17.34
2022-09-04T01:01:08.302Z,17.31
2022-09-04T01:03:52.715Z,17.31
2022-09-04T01:06:30.841Z,17.31
2022-09-04T01:09:24.851Z,17.32
2022-09-04T01:12:07.744Z,17.31
2022-09-04T01:14:43.114Z,17.31
2022-09-04T01:17:19.514Z,17.28
2022-09-04T01:19:56.991Z,17.25
2022-09-04T01:22:48.115Z,17.24
2022-09-04T01:25:35.458Z,17.23
2022-09-04T01:28:10.790Z,17.20
2022-09-04T01:30:56.211Z,17.19
2022-09-04T01:33:31.489Z,17.15
2022-09-04T01:36:06.995Z,17.13
2022-09-04T01:38:41.628Z,17.11
2022-09-04T01:41:16.868Z,17.09
2022-09-04T01:43:46.384Z,17.08
2022-09-04T01:46:35.439Z,17.09
2022-09-04T01:49:14.177Z,17.08
2022-09-04T01:51:51.334Z,17.08
2022-09-04T01:54:31.218Z,17.08
2022-09-04T01:57:11.712Z,17.10
2022-09-04T01:59:53.862Z,17.10
2022-09-04T02:02:30.079Z,17.12
2022-09-04T02:05:08.578Z,17.14
2022-09-04T02:07:44.489Z,17.14
2022-09-04T02:10:19.935Z,17.15
2022-09-04T02:12:58.982Z,17.17
2022-09-04T02:15:39.595Z,17.21
2022-09-04T02:18:14.968Z,17.24
2022-09-04T02:20:54.123Z,17.28
2022-09-04T02:23:30.069Z,17.31
2022-09-04T02:26:04.669Z,17.33
2022-09-04T02:28:43.086Z,17.35
2022-09-04T02:31:21.685Z,17.37
2022-09-04T02:33:55.609Z,17.38
2022-09-04T02:36:30.227Z,17.41
2022-09-04T02:39:07.362Z,17.42
2022-09-04T02:41:42.971Z,17.45
2022-09-04T02:44:25.663Z,17.48
2022-09-04T02:47:07.928Z,17.51
2022-09-04T02:49:42.670Z,17.54
2022-09-04T02:52:26.860Z,17.57
2022-09-04T02:55:09.165Z,17.62
2022-09-04T02:57:50.376Z,17.67
2022-09-04T03:00:21.605Z,17.73
2022-09-04T03:02:57.255Z,17.77
2022-09-04T03:05:28.078Z,17.82
2022-09-04T03:08:01.694Z,17.85
2022-09-04T03:10:34.273Z,17.93
2022-09-04T03:13:08.346Z,17.99
2022-09-04T03:15:45.015Z,18.03
2022-09-04T03:18:21.589Z,18.08
2022-09-04T03:20:56.186Z,18.12
2022-09-04T03:23:33.729Z,18.18
2022-09-04T03:26:22.077Z,18.21
2022-09-04T03:29:00.159Z,18.25
2022-09-04T03:31:32.581Z,18.28
2022-09-04T03:34:13.831Z,18.31
2022-09-04T03:36:49.859Z,18.34
2022-09-04T03:39:24.767Z,18.35
2022-09-04T03:42:05.880Z,18.38
2022-09-04T03:44:43.709Z,18.39
2022-09-04T03:47:20.817Z,18.38
2022-09-04T03:49:59.110Z,18.37
2022-09-04T03:52:35.067Z,18.34
2022-09-04T03:55:25.360Z,18.29
2022-09-04T03:58:16.995Z,18.22
2022-09-04T04:00:57.218Z,18.18
2022-09-04T04:03:43.630Z,18.13
2022-09-04T04:06:23.359Z,18.10
2022-09-04T04:09:29.512Z,18.07
2022-09-04T04:12:29.892Z,18.01
2022-09-04T04:15:08.677Z,17.54
2022-09-04T04:17:53.003Z,17.01
2022-09-04T04:20:29.439Z,16.58
2022-09-04T04:23:18.083Z,16.24
2022-09-04T04:25:59.949Z,16.03
2022-09-04T04:28:47.965Z,15.85
2022-09-04T04:31:25.960Z,15.81
2022-09-04T04:33:58.811Z,15.75
2022-09-04T04:36:33.818Z,15.71
2022-09-04T04:39:13.977Z,15.67
2022-09-04T04:42:07.297Z,15.64
2022-09-04T04:45:10.562Z,15.62
2022-09-04T04:48:08.127Z,15.58
2022-09-04T04:50:43.997Z,15.59
2022-09-04T04:53:20.504Z,15.61
2022-09-04T04:55:56.771Z,15.62
2022-09-04T04:58:53.776Z,15.63
2022-09-04T05:01:35.483Z,15.62
2022-09-04T05:04:15.181Z,15.61
2022-09-04T05:06:50.431Z,15.60
2022-09-04T05:09:25.822Z,15.66
2022-09-04T05:12:06.438Z,15.71
2022-09-04T05:14:43.475Z,15.77
2022-09-04T05:17:24.311Z,15.81
2022-09-04T05:20:00.269Z,15.84
2022-09-04T05:22:36.392Z,15.88
2022-09-04T05:25:13.044Z,15.91
2022-09-04T05:27:53.728Z,15.96
2022-09-04T05:30:29.122Z,15.98
2022-09-04T05:33:05.133Z,15.97
2022-09-04T05:35:44.073Z,15.96
2022-09-04T05:38:17.442Z,15.96
2022-09-04T05:41:04.419Z,15.94
2022-09-04T05:43:51.613Z,15.92
2022-09-04T05:46:33.854Z,15.90
2022-09-04T05:49:09.043Z,15.89
2022-09-04T05:52:08.194Z,15.93
2022-09-04T05:54:58.816Z,15.94
2022-09-04T05:57:42.453Z,15.94
2022-09-04T06:00:16.181Z,15.92
2022-09-04T06:03:20.603Z,15.93
2022-09-04T06:06:04.904Z,15.91
2022-09-04T06:09:04.081Z,15.92
2022-09-04T06:11:45.916Z,15.93
2022-09-04T06:14:31.879Z,15.93
2022-09-04T06:17:16.510Z,15.95
2022-09-04T06:20:02.507Z,15.95
2022-09-04T06:22:50.164Z,15.94
2022-09-04T06:25:47.289Z,15.96
2022-09-04T06:29:06.919Z,15.97
2022-09-04T06:32:08.388Z,16.00
2022-09-04T06:35:02.557Z,16.02
2022-09-04T06:37:40.739Z,16.02
2022-09-04T06:40:20.626Z,16.05
2022-09-04T06:43:06.409Z,16.11
2022-09-04T06:45:46.418Z,16.14
2022-09-04T06:48:23.784Z,16.15
2022-09-04T06:51:08.125Z,16.19
2022-09-04T06:53:42.587Z,16.21
2022-09-04T06:56:29.801Z,16.26
2022-09-04T06:59:13.793Z,16.28
2022-09-04T07:01:52.542Z,16.32
2022-09-04T07:04:33.071Z,16.36
2022-09-04T07:07:12.035Z,16.40
2022-09-04T07:09:44.093Z,16.41
2022-09-04T07:12:33.582Z,16.41
2022-09-04T07:15:26.826Z,16.43
2022-09-04T07:18:02.131Z,16.39
2022-09-04T07:20:37.139Z,16.38
2022-09-04T07:23:28.767Z,16.39
2022-09-04T07:26:10.083Z,16.36
2022-09-04T07:28:58.408Z,16.33
2022-09-04T07:31:30.583Z,16.30
2022-09-04T07:34:07.753Z,16.30
2022-09-04T07:36:41.890Z,16.32
2022-09-04T07:39:20.759Z,16.33
2022-09-04T07:41:57.711Z,16.35
2022-09-04T07:44:35.212Z,16.36
2022-09-04T07:47:14.276Z,16.36
2022-09-04T07:49:52.669Z,16.37
2022-09-04T07:52:41.698Z,16.38
2022-09-04T07:55:27.818Z,16.37
2022-09-04T07:58:20.330Z,16.39
2022-09-04T08:01:03.507Z,16.45
2022-09-04T08:03:54.563Z,16.51
2022-09-04T08:06:28.768Z,16.52
2022-09-04T08:09:19.982Z,16.51
2022-09-04T08:12:02.056Z,16.51
2022-09-04T08:14:53.830Z,16.52
2022-09-04T08:17:43.147Z,16.49
2022-09-04T08:20:24.794Z,16.49
2022-09-04T08:23:05.854Z,16.47
2022-09-04T08:25:49.677Z,16.46
2022-09-04T08:28:34.824Z,16.42
2022-09-04T08:31:11.414Z,16.41
2022-09-04T08:34:00.052Z,16.40
2022-09-04T08:36:38.825Z,16.43
2022-09-04T08:39:10.740Z,16.52
2022-09-04T08:42:17.822Z,16.62
2022-09-04T08:45:22.250Z,16.73
2022-09-04T08:48:33.587Z,16.77
2022-09-04T08:51:40.286Z,16.80
2022-09-04T08:54:29.085Z,16.88
2022-09-04T08:57:23.610Z,16.95
2022-09-04T09:00:12.691Z,17.06
2022-09-04T09:03:13.905Z,17.19
2022-09-04T09:06:16.489Z,17.30
2022-09-04T09:09:28.532Z,17.44
2022-09-04T09:12:41.712Z,17.67
2022-09-04T09:15:50.231Z,17.85
2022-09-04T09:18:37.385Z,18.03
2022-09-04T09:21:16.919Z,18.14
2022-09-04T09:24:16.792Z,18.18
2022-09-04T09:27:05.753Z,18.23
2022-09-04T09:30:04.236Z,18.23
2022-09-04T09:33:05.811Z,18.30
2022-09-04T09:36:17.263Z,18.53
2022-09-04T09:39:14.257Z,18.81
2022-09-04T09:42:01.405Z,19.14
2022-09-04T09:45:09.439Z,19.48
2022-09-04T09:48:11.845Z,19.84
2022-09-04T09:51:04.518Z,20.07
2022-09-04T09:54:06.720Z,20.27
2022-09-04T09:57:17.446Z,20.50
2022-09-04T10:00:07.269Z,20.74
2022-09-04T10:03:10.246Z,20.96
2022-09-04T10:05:58.210Z,21.16
2022-09-04T10:08:43.312Z,21.33
2022-09-04T10:11:36.883Z,21.43
2022-09-04T10:14:25.155Z,21.55
2022-09-04T10:17:33.605Z,21.81
2022-09-04T10:20:42.957Z,21.94
2022-09-04T10:23:35.173Z,21.84
2022-09-04T10:26:21.238Z,21.74
2022-09-04T10:29:19.682Z,21.75
2022-09-04T10:32:06.585Z,21.86
2022-09-04T10:35:05.134Z,21.94
2022-09-04T10:37:49.235Z,21.90
2022-09-04T10:40:43.369Z,21.77
2022-09-04T10:43:47.820Z,21.63
2022-09-04T10:46:23.136Z,21.57
2022-09-04T10:49:16.008Z,21.67
2022-09-04T10:52:11.217Z,21.85
2022-09-04T10:55:18.351Z,22.06
2022-09-04T10:58:05.950Z,22.25
2022-09-04T11:00:40.411Z,22.38
2022-09-04T11:03:36.623Z,22.69
2022-09-04T11:06:49.552Z,22.76
2022-09-04T11:09:32.762Z,22.83
2022-09-04T11:12:26.324Z,22.93
2022-09-04T11:15:30.025Z,22.88
2022-09-04T11:18:27.036Z,22.98
2022-09-04T11:21:29.395Z,23.17
2022-09-04T11:24:41.696Z,23.02
2022-09-04T11:27:35.365Z,23.01
2022-09-04T11:30:12.206Z,23.09
2022-09-04T11:33:16.240Z,23.17
2022-09-04T11:36:20.156Z,23.25
2022-09-04T11:39:26.361Z,23.40
2022-09-04T11:42:20.495Z,23.45
2022-09-04T11:45:21.378Z,23.72
2022-09-04T11:48:14.381Z,23.75
2022-09-04T11:51:16.624Z,23.84
2022-09-04T11:54:19.178Z,23.74
2022-09-04T11:57:04.905Z,23.44
2022-09-04T11:59:56.992Z,23.20
2022-09-04T12:02:53.208Z,23.15
2022-09-04T12:05:40.421Z,23.11
2022-09-04T12:08:44.111Z,23.20
2022-09-04T12:11:38.279Z,23.42
2022-09-04T12:14:17.720Z,23.50
2022-09-04T12:17:22.257Z,23.65
2022-09-04T12:20:31.613Z,23.87
2022-09-04T12:23:18.524Z,23.88
2022-09-04T12:26:04.198Z,23.73
2022-09-04T12:29:00.375Z,23.60
2022-09-04T12:32:08.363Z,23.45
2022-09-04T12:34:55.863Z,23.40
2022-09-04T12:37:59.461Z,23.39
2022-09-04T12:40:44.734Z,23.53
2022-09-04T12:43:30.868Z,23.61
2022-09-04T12:46:14.409Z,23.52
2022-09-04T12:48:57.593Z,23.54
2022-09-04T12:51:30.255Z,23.69
2022-09-04T12:54:14.515Z,23.95
2022-09-04T12:56:49.623Z,23.99
2022-09-04T12:59:41.247Z,23.95
2022-09-04T13:02:26.159Z,23.91
2022-09-04T13:05:03.870Z,23.92
2022-09-04T13:07:50.463Z,23.88
2022-09-04T13:10:26.948Z,23.97
2022-09-04T13:13:05.927Z,23.89
2022-09-04T13:15:45.172Z,23.77
2022-09-04T13:18:31.678Z,23.55
2022-09-04T13:21:12.367Z,23.27
2022-09-04T13:23:57.289Z,23.07
2022-09-04T13:26:38.477Z,22.96
2022-09-04T13:29:17.239Z,23.00
2022-09-04T13:32:00.422Z,23.03
2022-09-04T13:34:43.701Z,23.06
2022-09-04T13:37:23.352Z,22.93
2022-09-04T13:40:04.216Z,22.76
2022-09-04T13:43:15.874Z,22.59
2022-09-04T13:45:46.762Z,22.44
2022-09-04T13:48:33.492Z,22.29
2022-09-04T13:51:13.856Z,22.12
2022-09-04T13:53:57.875Z,21.92
2022-09-04T13:56:32.420Z,21.82
2022-09-04T13:59:08.534Z,21.76
2022-09-04T14:01:46.158Z,21.62
2022-09-04T14:04:19.426Z,21.53
2022-09-04T14:06:49.771Z,21.49
2022-09-04T14:09:18.523Z,21.45
2022-09-04T14:12:04.904Z,21.48
2022-09-04T14:15:07.696Z,21.57
2022-09-04T14:17:43.606Z,21.49
2022-09-04T14:20:21.837Z,21.47
2022-09-04T14:23:01.855Z,21.42
2022-09-04T14:25:38.373Z,21.45
2022-09-04T14:28:17.940Z,21.51
2022-09-04T14:30:58.650Z,21.55
2022-09-04T14:33:36.089Z,21.56
2022-09-04T14:36:17.623Z,21.56
2022-09-04T14:39:01.884Z,21.75
2022-09-04T14:41:42.914Z,22.04
2022-09-04T14:44:25.004Z,22.20
2022-09-04T14:47:07.432Z,22.42
2022-09-04T14:49:47.116Z,22.56
2022-09-04T14:52:19.756Z,22.50
2022-09-04T14:54:54.045Z,22.36
2022-09-04T14:57:29.518Z,22.04
2022-09-04T15:00:06.092Z,21.81
2022-09-04T15:02:38.912Z,21.88
2022-09-04T15:05:18.000Z,21.93
2022-09-04T15:07:58.048Z,21.94
2022-09-04T15:10:31.627Z,22.07
2022-09-04T15:13:24.452Z,22.27
2022-09-04T15:15:56.581Z,22.31
2022-09-04T15:18:31.460Z,22.24
2022-09-04T15:21:05.092Z,22.11
2022-09-04T15:23:40.114Z,21.90
2022-09-04T15:26:19.988Z,21.74
2022-09-04T15:28:51.237Z,21.59
2022-09-04T15:31:29.148Z,21.46
2022-09-04T15:34:02.548Z,21.36
2022-09-04T15:36:31.676Z,21.29
2022-09-04T15:39:03.012Z,21.21
2022-09-04T15:41:42.015Z,21.09
2022-09-04T15:44:17.954Z,21.01
2022-09-04T15:46:51.282Z,20.90
2022-09-04T15:49:29.915Z,20.82
2022-09-04T15:52:10.442Z,20.73
2022-09-04T15:55:00.840Z,20.66
2022-09-04T15:57:43.753Z,20.58
2022-09-04T16:00:15.600Z,20.53
2022-09-04T16:02:53.492Z,20.45
2022-09-04T16:05:28.168Z,20.39
2022-09-04T16:08:05.280Z,20.38
2022-09-04T16:10:46.977Z,20.39
2022-09-04T16:13:35.242Z,20.40
2022-09-04T16:16:10.829Z,20.39
2022-09-04T16:18:50.272Z,20.41
2022-09-04T16:21:30.351Z,20.45
2022-09-04T16:24:08.054Z,20.49
2022-09-04T16:26:36.590Z,20.50
2022-09-04T16:29:09.716Z,20.55
2022-09-04T16:31:39.995Z,20.56
2022-09-04T16:34:22.178Z,20.55
2022-09-04T16:36:56.597Z,20.53
2022-09-04T16:39:30.112Z,20.56
2022-09-04T16:42:10.739Z,20.54
2022-09-04T16:44:45.421Z,20.57
2022-09-04T16:47:19.500Z,20.62
2022-09-04T16:49:56.417Z,20.70
2022-09-04T16:52:44.837Z,20.79
2022-09-04T16:55:17.353Z,20.81
2022-09-04T16:57:53.938Z,20.76
2022-09-04T17:00:24.117Z,20.70
2022-09-04T17:02:57.219Z,20.65
2022-09-04T17:05:35.193Z,20.62
2022-09-04T17:08:14.085Z,20.51
2022-09-04T17:10:46.710Z,20.39
2022-09-04T17:13:27.805Z,20.23
2022-09-04T17:16:03.579Z,20.07
2022-09-04T17:18:32.658Z,19.94
2022-09-04T17:25:40.634Z,19.85
2022-09-04T17:28:59.981Z,19.77
2022-09-04T17:29:08.245Z,19.68
2022-09-04T17:29:51.559Z,19.61
2022-09-04T17:35:52.597Z,19.55
2022-09-04T17:40:33.132Z,19.45
2022-09-04T17:40:41.635Z,19.36
2022-09-04T17:41:36.558Z,19.27
2022-09-04T17:44:29.279Z,19.22
2022-09-04T17:47:12.179Z,19.19
2022-09-04T17:49:47.286Z,19.18
2022-09-04T17:52:23.944Z,19.18
2022-09-04T17:54:52.358Z,19.17
2022-09-04T17:57:28.852Z,19.16
2022-09-04T18:00:05.055Z,19.16
2022-09-04T18:02:42.230Z,19.17
2022-09-04T18:05:19.779Z,19.17
2022-09-04T18:08:09.357Z,19.16
2022-09-04T18:10:52.015Z,19.11
2022-09-04T18:13:36.617Z,19.05
2022-09-04T18:16:16.237Z,18.98
2022-09-04T18:18:49.366Z,18.88
2022-09-04T18:21:23.995Z,18.81
2022-09-04T18:24:01.711Z,18.73
2022-09-04T18:26:41.196Z,18.69
2022-09-04T18:31:49.566Z,18.67
2022-09-04T18:37:25.319Z,18.60
2022-09-04T18:37:26.391Z,18.63
2022-09-04T18:38:41.808Z,18.57
2022-09-04T18:44:31.892Z,18.54
2022-09-04T18:50:22.759Z,18.52
2022-09-04T18:50:34.633Z,18.51
2022-09-04T18:50:46.125Z,18.49
2022-09-04T18:52:57.985Z,18.47
2022-09-04T18:55:32.115Z,18.46
2022-09-04T18:58:18.815Z,18.45
2022-09-04T19:00:53.584Z,18.44
2022-09-04T19:03:26.583Z,18.43
2022-09-04T19:05:59.404Z,18.43
2022-09-04T19:08:34.112Z,18.42
2022-09-04T19:11:17.455Z,18.39
2022-09-04T19:13:54.023Z,18.39
2022-09-04T19:16:30.020Z,18.38
2022-09-04T19:19:04.163Z,18.37
2022-09-04T19:21:43.108Z,18.37
2022-09-04T19:24:25.061Z,18.33
2022-09-04T19:27:27.367Z,18.29
2022-09-04T19:30:18.174Z,18.27
2022-09-04T19:33:10.262Z,18.26
2022-09-04T19:35:49.850Z,18.24
2022-09-04T19:43:51.283Z,18.22
2022-09-04T19:46:01.096Z,18.21
2022-09-04T19:46:11.160Z,18.19
2022-09-04T19:47:27.567Z,18.17
2022-09-04T19:53:21.986Z,18.16
2022-09-04T19:53:33.790Z,18.14
2022-09-04T19:56:02.402Z,18.12
2022-09-04T19:58:39.408Z,18.11
2022-09-04T20:01:18.147Z,18.08
2022-09-04T20:03:51.859Z,18.04
2022-09-04T20:06:25.549Z,18.03
2022-09-04T20:08:59.588Z,18.02
2022-09-04T20:11:36.035Z,18.00
2022-09-04T20:14:14.274Z,17.99
2022-09-04T20:16:54.339Z,17.98
2022-09-04T20:19:27.778Z,17.95
2022-09-04T20:22:01.199Z,17.94
2022-09-04T20:24:38.487Z,17.93
2022-09-04T20:27:15.562Z,17.93
2022-09-04T20:29:50.188Z,17.93
2022-09-04T20:32:27.606Z,17.88
2022-09-04T20:35:13.262Z,17.81
2022-09-04T20:37:46.587Z,17.72
2022-09-04T20:40:28.793Z,17.64
2022-09-04T20:43:17.001Z,17.58
2022-09-04T20:50:14.455Z,17.53
2022-09-04T20:52:52.242Z,17.49
2022-09-04T20:52:58.423Z,17.51
2022-09-04T20:55:08.022Z,17.47
2022-09-04T21:03:12.415Z,17.46
2022-09-04T21:03:23.361Z,17.42
2022-09-04T21:04:05.470Z,17.40
2022-09-04T21:06:39.839Z,17.34
2022-09-04T21:09:19.206Z,17.31
2022-09-04T21:11:51.523Z,17.28
2022-09-04T21:14:26.867Z,17.24
2022-09-04T21:17:27.510Z,17.23
2022-09-04T21:20:17.353Z,17.22
2022-09-04T21:23:05.655Z,17.22
2022-09-04T21:25:47.149Z,17.20
2022-09-04T21:28:52.070Z,17.21
2022-09-04T21:31:44.646Z,17.20
2022-09-04T21:34:31.835Z,17.21
2022-09-04T21:37:09.434Z,17.21
2022-09-04T21:40:01.079Z,17.23
2022-09-04T21:42:50.318Z,17.24
2022-09-04T21:45:36.192Z,17.24
2022-09-04T21:48:23.459Z,17.25
2022-09-04T21:51:26.411Z,17.28
2022-09-04T21:54:38.171Z,17.29
2022-09-04T22:02:31.711Z,17.32
2022-09-04T22:02:36.670Z,17.33
2022-09-04T22:04:02.334Z,17.34
2022-09-04T22:07:11.037Z,17.36
2022-09-04T22:13:27.468Z,17.38
2022-09-04T22:13:39.855Z,17.40
2022-09-04T22:15:58.990Z,17.40
2022-09-04T22:18:48.805Z,17.43
2022-09-04T22:21:27.118Z,17.43
2022-09-04T22:24:19.362Z,17.44
2022-09-04T22:27:19.718Z,17.46
2022-09-04T22:30:08.030Z,17.46
2022-09-04T22:33:08.364Z,17.49
2022-09-04T22:36:19.641Z,17.51
2022-09-04T22:39:07.166Z,17.52
2022-09-04T22:41:57.921Z,17.54
2022-09-04T22:44:44.471Z,17.56
2022-09-04T22:47:43.820Z,17.58
2022-09-04T22:50:49.748Z,17.60
2022-09-04T22:53:56.959Z,17.61
2022-09-04T22:56:37.786Z,17.61
2022-09-04T22:59:39.623Z,17.64
2022-09-04T23:02:48.138Z,17.64
2022-09-04T23:05:37.608Z,17.64
2022-09-04T23:13:47.520Z,17.65
2022-09-04T23:14:00.478Z,17.66
2022-09-04T23:14:53.229Z,17.63
2022-09-04T23:17:51.081Z,17.61
2022-09-04T23:26:38.133Z,17.62
2022-09-04T23:26:44.995Z,17.62
2022-09-04T23:27:08.691Z,17.62
2022-09-04T23:30:05.424Z,17.62
2022-09-04T23:33:27.070Z,17.65
2022-09-04T23:36:28.455Z,17.64
2022-09-04T23:39:29.919Z,17.63
2022-09-04T23:42:15.563Z,17.59
2022-09-04T23:45:10.394Z,17.54
2022-09-04T23:48:01.710Z,17.51
2022-09-04T23:50:35.958Z,17.47
2022-09-04T23:53:17.850Z,17.45
2022-09-04T23:56:01.977Z,17.42
2022-09-04T23:59:00.247Z,17.38
